sensor_id;sensor_type;location;lat;lon;timestamp;temperature;humidity
71173;DHT22;58875;51.996;4.504;2024-02-04T00:00:44;10.63;89.26
71173;DHT22;58875;51.996;4.504;2024-02-04T00:03:10;10.69;89.32
71173;DHT22;58875;51.996;4.504;2024-02-04T00:05:35;10.75;89.13
71173;DHT22;58875;51.996;4.504;2024-02-04T00:08:01;10.77;88.99
71173;DHT22;58875;51.996;4.504;2024-02-04T00:10:28;10.83;89.04
71173;DHT22;58875;51.996;4.504;2024-02-04T00:12:53;10.90;88.79
71173;DHT22;58875;51.996;4.504;2024-02-04T00:15:19;10.95;88.60
71173;DHT22;58875;51.996;4.504;2024-02-04T00:17:45;10.93;88.57
71173;DHT22;58875;51.996;4.504;2024-02-04T00:20:10;10.96;88.54
71173;DHT22;58875;51.996;4.504;2024-02-04T00:22:36;11.00;88.36
71173;DHT22;58875;51.996;4.504;2024-02-04T00:25:02;11.04;88.26
71173;DHT22;58875;51.996;4.504;2024-02-04T00:27:33;11.01;88.27
71173;DHT22;58875;51.996;4.504;2024-02-04T00:29:59;11.07;88.13
71173;DHT22;58875;51.996;4.504;2024-02-04T00:32:26;11.00;88.09
71173;DHT22;58875;51.996;4.504;2024-02-04T00:34:52;10.99;88.23
71173;DHT22;58875;51.996;4.504;2024-02-04T00:37:18;11.03;88.11
71173;DHT22;58875;51.996;4.504;2024-02-04T00:39:44;10.99;88.09
71173;DHT22;58875;51.996;4.504;2024-02-04T00:42:11;11.03;88.09
71173;DHT22;58875;51.996;4.504;2024-02-04T00:44:36;11.06;87.91
71173;DHT22;58875;51.996;4.504;2024-02-04T00:47:02;11.08;87.87
71173;DHT22;58875;51.996;4.504;2024-02-04T00:49:28;11.06;87.73
71173;DHT22;58875;51.996;4.504;2024-02-04T00:51:54;11.04;87.84
71173;DHT22;58875;51.996;4.504;2024-02-04T00:54:20;11.04;87.66
71173;DHT22;58875;51.996;4.504;2024-02-04T00:56:45;11.00;87.80
71173;DHT22;58875;51.996;4.504;2024-02-04T00:59:14;10.97;87.67
71173;DHT22;58875;51.996;4.504;2024-02-04T01:01:39;10.95;87.79
71173;DHT22;58875;51.996;4.504;2024-02-04T01:04:05;10.93;87.83
71173;DHT22;58875;51.996;4.504;2024-02-04T01:06:30;10.87;87.76
71173;DHT22;58875;51.996;4.504;2024-02-04T01:08:56;10.86;87.79
71173;DHT22;58875;51.996;4.504;2024-02-04T01:11:23;10.81;87.98
71173;DHT22;58875;51.996;4.504;2024-02-04T01:13:48;10.77;88.08
71173;DHT22;58875;51.996;4.504;2024-02-04T01:16:14;10.81;88.04
71173;DHT22;58875;51.996;4.504;2024-02-04T01:18:39;10.77;87.83
71173;DHT22;58875;51.996;4.504;2024-02-04T01:21:05;10.70;88.04
71173;DHT22;58875;51.996;4.504;2024-02-04T01:23:30;10.66;88.08
71173;DHT22;58875;51.996;4.504;2024-02-04T01:25:56;10.73;88.08
71173;DHT22;58875;51.996;4.504;2024-02-04T01:28:22;10.70;87.90
71173;DHT22;58875;51.996;4.504;2024-02-04T01:30:47;10.73;88.00
71173;DHT22;58875;51.996;4.504;2024-02-04T01:33:13;10.77;87.67
71173;DHT22;58875;51.996;4.504;2024-02-04T01:35:38;10.79;87.77
71173;DHT22;58875;51.996;4.504;2024-02-04T01:38:04;10.70;87.76
71173;DHT22;58875;51.996;4.504;2024-02-04T01:40:29;10.73;87.79
71173;DHT22;58875;51.996;4.504;2024-02-04T01:42:55;10.65;87.80
71173;DHT22;58875;51.996;4.504;2024-02-04T01:45:21;10.69;88.02
71173;DHT22;58875;51.996;4.504;2024-02-04T01:47:47;10.79;87.77
71173;DHT22;58875;51.996;4.504;2024-02-04T01:50:14;10.73;87.56
71173;DHT22;58875;51.996;4.504;2024-02-04T01:52:42;10.83;87.75
71173;DHT22;58875;51.996;4.504;2024-02-04T01:55:09;10.86;87.16
71173;DHT22;58875;51.996;4.504;2024-02-04T01:57:35;10.90;87.14
71173;DHT22;58875;51.996;4.504;2024-02-04T02:00:01;10.90;86.95
71173;DHT22;58875;51.996;4.504;2024-02-04T02:02:31;10.92;86.84
71173;DHT22;58875;51.996;4.504;2024-02-04T02:04:59;10.80;86.66
71173;DHT22;58875;51.996;4.504;2024-02-04T02:07:25;10.80;86.81
71173;DHT22;58875;51.996;4.504;2024-02-04T02:09:52;10.76;86.46
71173;DHT22;58875;51.996;4.504;2024-02-04T02:12:34;10.77;86.43
71173;DHT22;58875;51.996;4.504;2024-02-04T02:15:15;10.67;86.45
71173;DHT22;58875;51.996;4.504;2024-02-04T02:17:57;10.63;86.53
71173;DHT22;58875;51.996;4.504;2024-02-04T02:23:22;10.53;86.66
71173;DHT22;58875;51.996;4.504;2024-02-04T02:25:49;10.55;86.72
71173;DHT22;58875;51.996;4.504;2024-02-04T02:28:16;10.53;86.49
71173;DHT22;58875;51.996;4.504;2024-02-04T02:30:41;10.45;86.49
71173;DHT22;58875;51.996;4.504;2024-02-04T02:33:10;10.45;86.78
71173;DHT22;58875;51.996;4.504;2024-02-04T02:35:35;10.46;86.67
71173;DHT22;58875;51.996;4.504;2024-02-04T02:38:23;10.44;86.68
71173;DHT22;58875;51.996;4.504;2024-02-04T02:41:04;10.36;87.03
71173;DHT22;58875;51.996;4.504;2024-02-04T02:43:34;10.39;86.86
71173;DHT22;58875;51.996;4.504;2024-02-04T02:46:00;10.41;87.03
71173;DHT22;58875;51.996;4.504;2024-02-04T02:48:27;10.41;87.22
71173;DHT22;58875;51.996;4.504;2024-02-04T02:50:55;10.44;87.37
71173;DHT22;58875;51.996;4.504;2024-02-04T02:53:21;10.55;87.10
71173;DHT22;58875;51.996;4.504;2024-02-04T02:55:46;10.59;87.10
71173;DHT22;58875;51.996;4.504;2024-02-04T02:58:13;10.65;87.06
71173;DHT22;58875;51.996;4.504;2024-02-04T03:00:39;10.66;87.01
71173;DHT22;58875;51.996;4.504;2024-02-04T03:03:04;10.70;86.90
71173;DHT22;58875;51.996;4.504;2024-02-04T03:05:30;10.66;86.72
71173;DHT22;58875;51.996;4.504;2024-02-04T03:07:56;10.72;86.77
71173;DHT22;58875;51.996;4.504;2024-02-04T03:10:21;10.67;86.59
71173;DHT22;58875;51.996;4.504;2024-02-04T03:12:47;10.55;86.97
71173;DHT22;58875;51.996;4.504;2024-02-04T03:15:12;10.53;87.12
71173;DHT22;58875;51.996;4.504;2024-02-04T03:17:38;10.55;87.01
71173;DHT22;58875;51.996;4.504;2024-02-04T03:20:04;10.52;86.97
71173;DHT22;58875;51.996;4.504;2024-02-04T03:22:30;10.52;86.94
71173;DHT22;58875;51.996;4.504;2024-02-04T03:24:55;10.52;87.02
71173;DHT22;58875;51.996;4.504;2024-02-04T03:27:21;10.46;86.92
71173;DHT22;58875;51.996;4.504;2024-02-04T03:29:47;10.45;87.13
71173;DHT22;58875;51.996;4.504;2024-02-04T03:32:12;10.46;87.11
71173;DHT22;58875;51.996;4.504;2024-02-04T03:34:38;10.46;87.12
71173;DHT22;58875;51.996;4.504;2024-02-04T03:37:06;10.56;87.04
71173;DHT22;58875;51.996;4.504;2024-02-04T03:39:31;10.55;86.88
71173;DHT22;58875;51.996;4.504;2024-02-04T03:41:57;10.57;87.12
71173;DHT22;58875;51.996;4.504;2024-02-04T03:44:22;10.69;86.75
71173;DHT22;58875;51.996;4.504;2024-02-04T03:46:49;10.69;87.19
71173;DHT22;58875;51.996;4.504;2024-02-04T03:49:16;10.73;86.53
71173;DHT22;58875;51.996;4.504;2024-02-04T03:51:42;10.69;86.23
71173;DHT22;58875;51.996;4.504;2024-02-04T03:54:07;10.66;86.12
71173;DHT22;58875;51.996;4.504;2024-02-04T03:56:33;10.60;86.19
71173;DHT22;58875;51.996;4.504;2024-02-04T03:58:58;10.60;86.29
71173;DHT22;58875;51.996;4.504;2024-02-04T04:01:24;10.53;86.34
71173;DHT22;58875;51.996;4.504;2024-02-04T04:03:57;10.49;86.54
71173;DHT22;58875;51.996;4.504;2024-02-04T04:06:22;10.52;86.59
71173;DHT22;58875;51.996;4.504;2024-02-04T04:08:47;10.49;86.47
71173;DHT22;58875;51.996;4.504;2024-02-04T04:11:13;10.52;86.48
71173;DHT22;58875;51.996;4.504;2024-02-04T04:13:38;10.48;86.44
71173;DHT22;58875;51.996;4.504;2024-02-04T04:16:05;10.46;86.68
71173;DHT22;58875;51.996;4.504;2024-02-04T04:18:31;10.52;86.74
71173;DHT22;58875;51.996;4.504;2024-02-04T04:20:57;10.52;86.55
71173;DHT22;58875;51.996;4.504;2024-02-04T04:23:22;10.56;86.52
71173;DHT22;58875;51.996;4.504;2024-02-04T04:25:48;10.55;86.58
71173;DHT22;58875;51.996;4.504;2024-02-04T04:28:13;10.48;86.47
71173;DHT22;58875;51.996;4.504;2024-02-04T04:30:39;10.36;86.75
71173;DHT22;58875;51.996;4.504;2024-02-04T04:33:04;10.39;87.03
71173;DHT22;58875;51.996;4.504;2024-02-04T04:35:31;10.39;86.90
71173;DHT22;58875;51.996;4.504;2024-02-04T04:37:57;10.38;87.09
71173;DHT22;58875;51.996;4.504;2024-02-04T04:40:22;10.42;87.22
71173;DHT22;58875;51.996;4.504;2024-02-04T04:42:48;10.41;87.04
71173;DHT22;58875;51.996;4.504;2024-02-04T04:45:16;10.38;87.10
71173;DHT22;58875;51.996;4.504;2024-02-04T04:47:42;10.39;87.21
71173;DHT22;58875;51.996;4.504;2024-02-04T04:50:08;10.31;87.50
71173;DHT22;58875;51.996;4.504;2024-02-04T04:52:33;10.32;87.71
71173;DHT22;58875;51.996;4.504;2024-02-04T04:54:59;10.39;87.61
71173;DHT22;58875;51.996;4.504;2024-02-04T04:57:24;10.39;87.42
71173;DHT22;58875;51.996;4.504;2024-02-04T04:59:50;10.34;87.54
71173;DHT22;58875;51.996;4.504;2024-02-04T05:02:16;10.35;87.54
71173;DHT22;58875;51.996;4.504;2024-02-04T05:04:45;10.34;87.57
71173;DHT22;58875;51.996;4.504;2024-02-04T05:07:11;10.26;87.84
71173;DHT22;58875;51.996;4.504;2024-02-04T05:09:37;10.29;87.82
71173;DHT22;58875;51.996;4.504;2024-02-04T05:12:03;10.25;87.73
71173;DHT22;58875;51.996;4.504;2024-02-04T05:14:29;10.25;87.83
71173;DHT22;58875;51.996;4.504;2024-02-04T05:16:55;10.31;87.57
71173;DHT22;58875;51.996;4.504;2024-02-04T05:19:20;10.29;87.46
71173;DHT22;58875;51.996;4.504;2024-02-04T05:21:46;10.28;87.65
71173;DHT22;58875;51.996;4.504;2024-02-04T05:24:12;10.22;87.79
71173;DHT22;58875;51.996;4.504;2024-02-04T05:26:37;10.21;87.71
71173;DHT22;58875;51.996;4.504;2024-02-04T05:29:03;10.31;87.71
71173;DHT22;58875;51.996;4.504;2024-02-04T05:31:28;10.24;87.53
71173;DHT22;58875;51.996;4.504;2024-02-04T05:33:56;10.26;87.61
71173;DHT22;58875;51.996;4.504;2024-02-04T05:36:21;10.24;87.56
71173;DHT22;58875;51.996;4.504;2024-02-04T05:38:47;10.22;87.58
71173;DHT22;58875;51.996;4.504;2024-02-04T05:41:12;10.18;87.58
71173;DHT22;58875;51.996;4.504;2024-02-04T05:43:39;10.17;87.66
71173;DHT22;58875;51.996;4.504;2024-02-04T05:46:04;10.18;87.66
71173;DHT22;58875;51.996;4.504;2024-02-04T05:48:30;10.22;87.59
71173;DHT22;58875;51.996;4.504;2024-02-04T05:50:56;10.15;87.62
71173;DHT22;58875;51.996;4.504;2024-02-04T05:53:21;10.18;87.67
71173;DHT22;58875;51.996;4.504;2024-02-04T05:55:46;10.19;87.53
71173;DHT22;58875;51.996;4.504;2024-02-04T05:58:12;10.22;87.55
71173;DHT22;58875;51.996;4.504;2024-02-04T06:00:40;10.29;87.29
71173;DHT22;58875;51.996;4.504;2024-02-04T06:03:06;10.25;87.24
71173;DHT22;58875;51.996;4.504;2024-02-04T06:05:32;10.28;87.20
71173;DHT22;58875;51.996;4.504;2024-02-04T06:07:57;10.28;87.25
71173;DHT22;58875;51.996;4.504;2024-02-04T06:10:23;10.32;87.44
71173;DHT22;58875;51.996;4.504;2024-02-04T06:12:48;10.36;87.13
71173;DHT22;58875;51.996;4.504;2024-02-04T06:15:15;10.34;87.29
71173;DHT22;58875;51.996;4.504;2024-02-04T06:17:41;10.41;87.37
71173;DHT22;58875;51.996;4.504;2024-02-04T06:20:07;10.42;87.41
71173;DHT22;58875;51.996;4.504;2024-02-04T06:22:36;10.45;87.49
71173;DHT22;58875;51.996;4.504;2024-02-04T06:25:03;10.44;87.53
71173;DHT22;58875;51.996;4.504;2024-02-04T06:27:29;10.46;87.44
71173;DHT22;58875;51.996;4.504;2024-02-04T06:29:55;10.50;87.30
71173;DHT22;58875;51.996;4.504;2024-02-04T06:32:21;10.52;87.39
71173;DHT22;58875;51.996;4.504;2024-02-04T06:34:46;10.55;87.30
71173;DHT22;58875;51.996;4.504;2024-02-04T06:37:13;10.56;87.31
71173;DHT22;58875;51.996;4.504;2024-02-04T06:39:39;10.56;87.22
71173;DHT22;58875;51.996;4.504;2024-02-04T06:42:04;10.48;87.39
71173;DHT22;58875;51.996;4.504;2024-02-04T06:44:30;10.48;87.29
71173;DHT22;58875;51.996;4.504;2024-02-04T06:46:56;10.52;87.32
71173;DHT22;58875;51.996;4.504;2024-02-04T06:49:21;10.52;87.21
71173;DHT22;58875;51.996;4.504;2024-02-04T06:51:47;10.53;87.26
71173;DHT22;58875;51.996;4.504;2024-02-04T06:54:13;10.39;87.74
71173;DHT22;58875;51.996;4.504;2024-02-04T06:56:39;10.39;87.83
71173;DHT22;58875;51.996;4.504;2024-02-04T06:59:05;10.34;87.91
71173;DHT22;58875;51.996;4.504;2024-02-04T07:01:30;10.35;87.99
71173;DHT22;58875;51.996;4.504;2024-02-04T07:03:56;10.38;88.05
71173;DHT22;58875;51.996;4.504;2024-02-04T07:06:24;10.31;88.04
71173;DHT22;58875;51.996;4.504;2024-02-04T07:08:50;10.29;88.47
71173;DHT22;58875;51.996;4.504;2024-02-04T07:11:15;10.31;88.24
71173;DHT22;58875;51.996;4.504;2024-02-04T07:13:41;10.26;88.41
71173;DHT22;58875;51.996;4.504;2024-02-04T07:16:07;10.25;88.47
71173;DHT22;58875;51.996;4.504;2024-02-04T07:18:32;10.26;88.66
71173;DHT22;58875;51.996;4.504;2024-02-04T07:20:58;10.32;88.79
71173;DHT22;58875;51.996;4.504;2024-02-04T07:23:23;10.26;88.93
71173;DHT22;58875;51.996;4.504;2024-02-04T07:25:49;10.26;89.06
71173;DHT22;58875;51.996;4.504;2024-02-04T07:28:14;10.26;89.23
71173;DHT22;58875;51.996;4.504;2024-02-04T07:30:40;10.28;89.25
71173;DHT22;58875;51.996;4.504;2024-02-04T07:33:05;10.28;89.20
71173;DHT22;58875;51.996;4.504;2024-02-04T07:35:31;10.29;89.23
71173;DHT22;58875;51.996;4.504;2024-02-04T07:38:00;10.29;89.24
71173;DHT22;58875;51.996;4.504;2024-02-04T07:40:26;10.28;89.15
71173;DHT22;58875;51.996;4.504;2024-02-04T07:42:53;10.32;89.21
71173;DHT22;58875;51.996;4.504;2024-02-04T07:45:19;10.31;89.01
71173;DHT22;58875;51.996;4.504;2024-02-04T07:47:44;10.32;89.03
71173;DHT22;58875;51.996;4.504;2024-02-04T07:50:10;10.32;88.90
71173;DHT22;58875;51.996;4.504;2024-02-04T07:52:36;10.35;88.91
71173;DHT22;58875;51.996;4.504;2024-02-04T07:55:02;10.36;88.91
71173;DHT22;58875;51.996;4.504;2024-02-04T07:57:27;10.35;88.87
71173;DHT22;58875;51.996;4.504;2024-02-04T07:59:53;10.36;88.75
71173;DHT22;58875;51.996;4.504;2024-02-04T08:02:18;10.41;88.67
71173;DHT22;58875;51.996;4.504;2024-02-04T08:04:44;10.45;88.48
71173;DHT22;58875;51.996;4.504;2024-02-04T08:07:12;10.46;88.22
71173;DHT22;58875;51.996;4.504;2024-02-04T08:09:38;10.49;88.04
71173;DHT22;58875;51.996;4.504;2024-02-04T08:12:04;10.55;87.82
71173;DHT22;58875;51.996;4.504;2024-02-04T08:14:29;10.50;87.69
71173;DHT22;58875;51.996;4.504;2024-02-04T08:16:55;10.49;87.77
71173;DHT22;58875;51.996;4.504;2024-02-04T08:19:20;10.50;87.65
71173;DHT22;58875;51.996;4.504;2024-02-04T08:21:46;10.55;87.63
71173;DHT22;58875;51.996;4.504;2024-02-04T08:24:11;10.53;87.40
71173;DHT22;58875;51.996;4.504;2024-02-04T08:26:37;10.59;87.24
71173;DHT22;58875;51.996;4.504;2024-02-04T08:29:02;10.55;87.25
71173;DHT22;58875;51.996;4.504;2024-02-04T08:31:31;10.55;87.21
71173;DHT22;58875;51.996;4.504;2024-02-04T08:33:57;10.57;87.24
71173;DHT22;58875;51.996;4.504;2024-02-04T08:36:22;10.53;87.11
71173;DHT22;58875;51.996;4.504;2024-02-04T08:38:48;10.53;87.04
71173;DHT22;58875;51.996;4.504;2024-02-04T08:41:13;10.60;86.92
71173;DHT22;58875;51.996;4.504;2024-02-04T08:43:39;10.59;86.80
71173;DHT22;58875;51.996;4.504;2024-02-04T08:46:05;10.60;86.74
71173;DHT22;58875;51.996;4.504;2024-02-04T08:48:31;10.65;86.61
71173;DHT22;58875;51.996;4.504;2024-02-04T08:50:56;10.66;86.53
71173;DHT22;58875;51.996;4.504;2024-02-04T08:53:21;10.66;86.56
71173;DHT22;58875;51.996;4.504;2024-02-04T08:55:49;10.65;86.51
71173;DHT22;58875;51.996;4.504;2024-02-04T08:58:14;10.69;86.37
71173;DHT22;58875;51.996;4.504;2024-02-04T09:00:40;10.65;86.46
71173;DHT22;58875;51.996;4.504;2024-02-04T09:03:05;10.65;86.46
71173;DHT22;58875;51.996;4.504;2024-02-04T09:05:31;10.66;86.39
71173;DHT22;58875;51.996;4.504;2024-02-04T09:07:56;10.70;86.24
71173;DHT22;58875;51.996;4.504;2024-02-04T09:10:22;10.75;85.97
71173;DHT22;58875;51.996;4.504;2024-02-04T09:12:47;10.73;86.03
71173;DHT22;58875;51.996;4.504;2024-02-04T09:15:13;10.76;85.81
71173;DHT22;58875;51.996;4.504;2024-02-04T09:17:39;10.73;85.83
71173;DHT22;58875;51.996;4.504;2024-02-04T09:20:05;10.77;85.70
71173;DHT22;58875;51.996;4.504;2024-02-04T09:22:31;10.81;85.56
71173;DHT22;58875;51.996;4.504;2024-02-04T09:24:56;10.86;85.56
71173;DHT22;58875;51.996;4.504;2024-02-04T09:27:22;10.81;85.65
71173;DHT22;58875;51.996;4.504;2024-02-04T09:29:47;10.83;85.70
71173;DHT22;58875;51.996;4.504;2024-02-04T09:32:15;10.83;85.73
71173;DHT22;58875;51.996;4.504;2024-02-04T09:34:43;10.90;86.37
71173;DHT22;58875;51.996;4.504;2024-02-04T09:37:09;10.93;86.81
71173;DHT22;58875;51.996;4.504;2024-02-04T09:39:35;10.90;87.20
71173;DHT22;58875;51.996;4.504;2024-02-04T09:42:01;10.79;88.02
71173;DHT22;58875;51.996;4.504;2024-02-04T09:44:27;10.79;88.36
71173;DHT22;58875;51.996;4.504;2024-02-04T09:46:54;10.70;88.11
71173;DHT22;58875;51.996;4.504;2024-02-04T09:49:26;10.59;88.60
71173;DHT22;58875;51.996;4.504;2024-02-04T09:51:52;10.45;88.96
71173;DHT22;58875;51.996;4.504;2024-02-04T09:54:18;10.48;89.32
71173;DHT22;58875;51.996;4.504;2024-02-04T09:56:52;10.45;89.28
71173;DHT22;58875;51.996;4.504;2024-02-04T09:59:17;10.41;89.39
71173;DHT22;58875;51.996;4.504;2024-02-04T10:01:46;10.41;89.61
71173;DHT22;58875;51.996;4.504;2024-02-04T10:04:15;10.42;89.77
71173;DHT22;58875;51.996;4.504;2024-02-04T10:06:40;10.35;89.92
71173;DHT22;58875;51.996;4.504;2024-02-04T10:09:06;10.41;89.89
71173;DHT22;58875;51.996;4.504;2024-02-04T10:11:31;10.41;89.89
71173;DHT22;58875;51.996;4.504;2024-02-04T10:13:57;10.45;89.82
71173;DHT22;58875;51.996;4.504;2024-02-04T10:16:23;10.53;89.76
71173;DHT22;58875;51.996;4.504;2024-02-04T10:18:48;10.49;89.39
71173;DHT22;58875;51.996;4.504;2024-02-04T10:21:19;10.57;89.22
71173;DHT22;58875;51.996;4.504;2024-02-04T10:23:48;10.56;88.94
71173;DHT22;58875;51.996;4.504;2024-02-04T10:26:17;10.62;88.78
71173;DHT22;58875;51.996;4.504;2024-02-04T10:28:49;10.69;88.44
71173;DHT22;58875;51.996;4.504;2024-02-04T10:31:15;10.67;87.92
71173;DHT22;58875;51.996;4.504;2024-02-04T10:33:40;10.80;87.73
71173;DHT22;58875;51.996;4.504;2024-02-04T10:36:06;10.87;87.32
71173;DHT22;58875;51.996;4.504;2024-02-04T10:38:33;10.92;87.18
71173;DHT22;58875;51.996;4.504;2024-02-04T10:41:02;10.84;86.97
71173;DHT22;58875;51.996;4.504;2024-02-04T10:43:34;10.86;86.88
71173;DHT22;58875;51.996;4.504;2024-02-04T10:46:12;10.92;86.80
71173;DHT22;58875;51.996;4.504;2024-02-04T10:48:41;10.92;86.83
71173;DHT22;58875;51.996;4.504;2024-02-04T10:51:13;10.87;86.58
71173;DHT22;58875;51.996;4.504;2024-02-04T10:53:44;10.90;86.66
71173;DHT22;58875;51.996;4.504;2024-02-04T10:56:29;10.92;86.46
71173;DHT22;58875;51.996;4.504;2024-02-04T10:58:58;10.99;86.29
71173;DHT22;58875;51.996;4.504;2024-02-04T11:01:26;10.96;86.12
71173;DHT22;58875;51.996;4.504;2024-02-04T11:03:54;11.03;85.81
71173;DHT22;58875;51.996;4.504;2024-02-04T11:06:22;11.03;85.47
71173;DHT22;58875;51.996;4.504;2024-02-04T11:08:48;11.01;85.62
71173;DHT22;58875;51.996;4.504;2024-02-04T11:11:17;11.00;85.78
71173;DHT22;58875;51.996;4.504;2024-02-04T11:13:45;10.99;85.56
71173;DHT22;58875;51.996;4.504;2024-02-04T11:22:34;11.01;85.10
71173;DHT22;58875;51.996;4.504;2024-02-04T11:25:21;11.08;85.08
71173;DHT22;58875;51.996;4.504;2024-02-04T11:27:50;11.17;84.98
71173;DHT22;58875;51.996;4.504;2024-02-04T11:30:19;11.06;85.09
71173;DHT22;58875;51.996;4.504;2024-02-04T11:32:54;11.04;85.01
71173;DHT22;58875;51.996;4.504;2024-02-04T11:35:20;11.07;85.00
71173;DHT22;58875;51.996;4.504;2024-02-04T11:37:46;11.10;84.82
71173;DHT22;58875;51.996;4.504;2024-02-04T11:40:15;11.18;84.93
71173;DHT22;58875;51.996;4.504;2024-02-04T11:42:42;11.10;84.79
71173;DHT22;58875;51.996;4.504;2024-02-04T11:45:15;11.07;85.06
71173;DHT22;58875;51.996;4.504;2024-02-04T11:47:42;11.10;85.09
71173;DHT22;58875;51.996;4.504;2024-02-04T11:50:08;11.14;84.68
71173;DHT22;58875;51.996;4.504;2024-02-04T11:52:35;11.08;84.84
71173;DHT22;58875;51.996;4.504;2024-02-04T11:55:01;11.21;84.86
71173;DHT22;58875;51.996;4.504;2024-02-04T11:57:27;11.28;84.57
71173;DHT22;58875;51.996;4.504;2024-02-04T11:59:54;11.27;84.56
71173;DHT22;58875;51.996;4.504;2024-02-04T12:02:20;11.34;84.25
71173;DHT22;58875;51.996;4.504;2024-02-04T12:04:47;11.28;84.37
71173;DHT22;58875;51.996;4.504;2024-02-04T12:07:14;11.21;84.42
71173;DHT22;58875;51.996;4.504;2024-02-04T12:09:44;11.20;84.43
71173;DHT22;58875;51.996;4.504;2024-02-04T12:12:10;11.17;84.48
71173;DHT22;58875;51.996;4.504;2024-02-04T12:14:36;11.10;84.73
71173;DHT22;58875;51.996;4.504;2024-02-04T12:17:11;11.11;84.91
71173;DHT22;58875;51.996;4.504;2024-02-04T12:19:37;11.11;84.95
71173;DHT22;58875;51.996;4.504;2024-02-04T12:22:06;11.16;85.03
71173;DHT22;58875;51.996;4.504;2024-02-04T12:24:36;11.18;84.83
71173;DHT22;58875;51.996;4.504;2024-02-04T12:27:03;11.28;84.87
71173;DHT22;58875;51.996;4.504;2024-02-04T12:29:29;11.13;84.91
71173;DHT22;58875;51.996;4.504;2024-02-04T12:31:59;11.16;85.14
71173;DHT22;58875;51.996;4.504;2024-02-04T12:34:28;11.14;84.93
71173;DHT22;58875;51.996;4.504;2024-02-04T12:36:58;11.07;85.07
71173;DHT22;58875;51.996;4.504;2024-02-04T12:39:24;11.04;85.26
71173;DHT22;58875;51.996;4.504;2024-02-04T12:41:53;11.03;85.22
71173;DHT22;58875;51.996;4.504;2024-02-04T12:44:19;11.08;85.01
71173;DHT22;58875;51.996;4.504;2024-02-04T12:46:45;11.11;84.99
71173;DHT22;58875;51.996;4.504;2024-02-04T12:49:19;11.11;84.99
71173;DHT22;58875;51.996;4.504;2024-02-04T12:51:46;11.17;84.73
71173;DHT22;58875;51.996;4.504;2024-02-04T12:54:12;11.16;84.66
71173;DHT22;58875;51.996;4.504;2024-02-04T12:59:07;11.27;84.59
71173;DHT22;58875;51.996;4.504;2024-02-04T13:01:33;11.20;84.64
71173;DHT22;58875;51.996;4.504;2024-02-04T13:03:59;11.24;84.54
71173;DHT22;58875;51.996;4.504;2024-02-04T13:06:24;11.23;84.47
71173;DHT22;58875;51.996;4.504;2024-02-04T13:08:54;11.26;84.46
71173;DHT22;58875;51.996;4.504;2024-02-04T13:11:23;11.28;84.57
71173;DHT22;58875;51.996;4.504;2024-02-04T13:13:48;11.27;84.49
71173;DHT22;58875;51.996;4.504;2024-02-04T13:16:14;11.38;84.48
71173;DHT22;58875;51.996;4.504;2024-02-04T13:18:51;11.39;84.13
71173;DHT22;58875;51.996;4.504;2024-02-04T13:21:16;11.41;84.16
71173;DHT22;58875;51.996;4.504;2024-02-04T13:23:45;11.42;83.85
71173;DHT22;58875;51.996;4.504;2024-02-04T13:26:12;11.44;84.07
71173;DHT22;58875;51.996;4.504;2024-02-04T13:28:38;11.47;83.83
71173;DHT22;58875;51.996;4.504;2024-02-04T13:31:04;11.52;83.57
71173;DHT22;58875;51.996;4.504;2024-02-04T13:33:30;11.45;83.70
71173;DHT22;58875;51.996;4.504;2024-02-04T13:35:55;11.51;83.94
71173;DHT22;58875;51.996;4.504;2024-02-04T13:38:22;11.51;83.82
71173;DHT22;58875;51.996;4.504;2024-02-04T13:40:47;11.41;83.91
71173;DHT22;58875;51.996;4.504;2024-02-04T13:43:13;11.42;84.04
71173;DHT22;58875;51.996;4.504;2024-02-04T13:45:38;11.50;83.94
71173;DHT22;58875;51.996;4.504;2024-02-04T13:48:05;11.48;83.92
71173;DHT22;58875;51.996;4.504;2024-02-04T13:50:30;11.52;83.84
71173;DHT22;58875;51.996;4.504;2024-02-04T13:52:56;11.50;83.74
71173;DHT22;58875;51.996;4.504;2024-02-04T13:55:22;11.48;83.85
71173;DHT22;58875;51.996;4.504;2024-02-04T13:57:48;11.47;83.71
71173;DHT22;58875;51.996;4.504;2024-02-04T14:00:15;11.47;83.77
71173;DHT22;58875;51.996;4.504;2024-02-04T14:02:40;11.44;83.67
71173;DHT22;58875;51.996;4.504;2024-02-04T14:05:06;11.42;83.79
71173;DHT22;58875;51.996;4.504;2024-02-04T14:07:35;11.48;83.62
71173;DHT22;58875;51.996;4.504;2024-02-04T14:10:00;11.45;83.70
71173;DHT22;58875;51.996;4.504;2024-02-04T14:12:26;11.42;83.68
71173;DHT22;58875;51.996;4.504;2024-02-04T14:14:51;11.34;83.93
71173;DHT22;58875;51.996;4.504;2024-02-04T14:17:19;11.38;83.77
71173;DHT22;58875;51.996;4.504;2024-02-04T14:19:47;11.41;83.88
71173;DHT22;58875;51.996;4.504;2024-02-04T14:22:16;11.30;84.02
71173;DHT22;58875;51.996;4.504;2024-02-04T14:24:43;11.28;84.22
71173;DHT22;58875;51.996;4.504;2024-02-04T14:27:11;11.27;84.04
71173;DHT22;58875;51.996;4.504;2024-02-04T14:29:36;11.30;84.08
71173;DHT22;58875;51.996;4.504;2024-02-04T14:32:02;11.24;84.12
71173;DHT22;58875;51.996;4.504;2024-02-04T14:34:28;11.26;84.25
71173;DHT22;58875;51.996;4.504;2024-02-04T14:36:53;11.30;84.15
71173;DHT22;58875;51.996;4.504;2024-02-04T14:39:19;11.30;84.12
71173;DHT22;58875;51.996;4.504;2024-02-04T14:41:45;11.35;84.04
71173;DHT22;58875;51.996;4.504;2024-02-04T14:44:11;11.32;84.03
71173;DHT22;58875;51.996;4.504;2024-02-04T14:46:37;11.35;84.20
71173;DHT22;58875;51.996;4.504;2024-02-04T14:49:03;11.41;83.88
71173;DHT22;58875;51.996;4.504;2024-02-04T14:51:29;11.37;83.94
71173;DHT22;58875;51.996;4.504;2024-02-04T14:53:57;11.45;83.94
71173;DHT22;58875;51.996;4.504;2024-02-04T14:56:23;11.41;83.75
71173;DHT22;58875;51.996;4.504;2024-02-04T14:58:49;11.41;83.36
71173;DHT22;58875;51.996;4.504;2024-02-04T15:01:15;11.54;83.42
71173;DHT22;58875;51.996;4.504;2024-02-04T15:03:41;11.52;83.18
71173;DHT22;58875;51.996;4.504;2024-02-04T15:06:06;11.48;83.22
71173;DHT22;58875;51.996;4.504;2024-02-04T15:08:32;11.50;83.14
71173;DHT22;58875;51.996;4.504;2024-02-04T15:10:58;11.44;83.29
71173;DHT22;58875;51.996;4.504;2024-02-04T15:13:23;11.50;83.16
71173;DHT22;58875;51.996;4.504;2024-02-04T15:15:49;11.50;83.03
71173;DHT22;58875;51.996;4.504;2024-02-04T15:18:15;11.45;83.25
71173;DHT22;58875;51.996;4.504;2024-02-04T15:20:41;11.50;83.01
71173;DHT22;58875;51.996;4.504;2024-02-04T15:23:07;11.51;83.08
71173;DHT22;58875;51.996;4.504;2024-02-04T15:25:33;11.44;83.18
71173;DHT22;58875;51.996;4.504;2024-02-04T15:27:59;11.44;83.24
71173;DHT22;58875;51.996;4.504;2024-02-04T15:30:25;11.39;83.16
71173;DHT22;58875;51.996;4.504;2024-02-04T15:32:51;11.38;83.28
71173;DHT22;58875;51.996;4.504;2024-02-04T15:35:18;11.44;83.24
71173;DHT22;58875;51.996;4.504;2024-02-04T15:37:44;11.38;83.32